createdAt,value
2018-12-10T00:01:34.626Z,5.40
2018-12-10T00:04:03.232Z,5.40
2018-12-10T00:06:31.824Z,5.40
2018-12-10T00:09:00.373Z,5.40
2018-12-10T00:11:28.935Z,5.30
2018-12-10T00:13:57.467Z,5.30
2018-12-10T00:16:26.056Z,5.30
2018-12-10T00:18:54.654Z,5.20
2018-12-10T00:21:23.211Z,5.20
2018-12-10T00:23:51.756Z,5.20
2018-12-10T00:26:20.327Z,5.20
2018-12-10T00:28:48.855Z,5.20
2018-12-10T00:31:17.412Z,5.20
2018-12-10T00:33:45.952Z,5.20
2018-12-10T00:36:14.513Z,5.20
2018-12-10T00:38:43.044Z,5.20
2018-12-10T00:41:11.616Z,5.20
2018-12-10T00:43:40.149Z,5.20
2018-12-10T00:46:08.697Z,5.20
2018-12-10T00:48:37.295Z,5.20
2018-12-10T00:51:05.857Z,5.20
2018-12-10T00:53:34.452Z,5.20
2018-12-10T00:56:03.040Z,5.20
2018-12-10T00:58:31.603Z,5.10
2018-12-10T01:01:01.112Z,5.10
2018-12-10T01:03:29.660Z,5.20
2018-12-10T01:05:58.204Z,5.10
2018-12-10T01:08:26.786Z,5.10
2018-12-10T01:10:55.344Z,5.10
2018-12-10T01:13:23.890Z,5.10
2018-12-10T01:15:52.407Z,5.10
2018-12-10T01:18:20.964Z,5.10
2018-12-10T01:20:49.513Z,5.10
2018-12-10T01:23:18.058Z,5.10
2018-12-10T01:25:46.612Z,5.00
2018-12-10T01:28:15.164Z,5.00
2018-12-10T01:30:43.713Z,5.00
2018-12-10T01:33:12.288Z,5.00
2018-12-10T01:35:40.852Z,5.00
2018-12-10T01:38:09.404Z,4.90
2018-12-10T01:40:37.940Z,4.90
2018-12-10T01:43:06.545Z,4.90
2018-12-10T01:45:35.092Z,4.90
2018-12-10T01:48:03.737Z,4.80
2018-12-10T01:50:32.293Z,4.80
2018-12-10T01:53:00.907Z,4.70
2018-12-10T01:55:29.479Z,4.60
2018-12-10T01:57:58.198Z,4.60
2018-12-10T02:00:26.765Z,4.50
2018-12-10T02:02:57.711Z,4.50
2018-12-10T02:05:26.248Z,4.50
2018-12-10T02:07:54.789Z,4.40
2018-12-10T02:10:23.432Z,4.40
2018-12-10T02:12:51.961Z,4.40
2018-12-10T02:15:20.579Z,4.30
2018-12-10T02:17:49.224Z,4.30
2018-12-10T02:20:17.810Z,4.30
2018-12-10T02:22:46.357Z,4.30
2018-12-10T02:25:14.923Z,4.30
2018-12-10T02:27:43.451Z,4.30
2018-12-10T02:30:12.254Z,4.30
2018-12-10T02:32:40.796Z,4.20
2018-12-10T02:35:09.342Z,4.30
2018-12-10T02:37:37.928Z,4.30
2018-12-10T02:40:06.604Z,4.20
2018-12-10T02:42:35.171Z,4.30
2018-12-10T02:45:03.784Z,4.30
2018-12-10T02:47:32.344Z,4.30
2018-12-10T02:50:00.908Z,4.30
2018-12-10T02:52:29.488Z,4.30
2018-12-10T02:54:58.072Z,4.30
2018-12-10T02:57:26.609Z,4.30
2018-12-10T02:59:55.227Z,4.20
2018-12-10T03:02:23.769Z,4.20
2018-12-10T03:04:52.456Z,4.20
2018-12-10T03:07:21.007Z,4.20
2018-12-10T03:09:49.582Z,4.30
2018-12-10T03:12:18.124Z,4.30
2018-12-10T03:14:46.688Z,4.30
2018-12-10T03:17:15.209Z,4.30
2018-12-10T03:19:43.764Z,4.30
2018-12-10T03:22:12.335Z,4.30
2018-12-10T03:24:40.885Z,4.20
2018-12-10T03:27:09.451Z,4.30
2018-12-10T03:29:37.964Z,4.20
2018-12-10T03:32:06.627Z,4.20
2018-12-10T03:34:35.312Z,4.10
2018-12-10T03:37:04.042Z,4.10
2018-12-10T03:39:32.752Z,4.10
2018-12-10T03:42:01.291Z,4.10
2018-12-10T03:44:29.901Z,4.10
2018-12-10T03:46:58.537Z,4.10
2018-12-10T03:49:27.088Z,4.10
2018-12-10T03:51:55.656Z,4.10
2018-12-10T03:54:24.214Z,4.10
2018-12-10T03:56:52.838Z,4.10
2018-12-10T03:59:21.447Z,4.10
2018-12-10T04:01:49.980Z,4.10
2018-12-10T04:04:18.525Z,4.10
2018-12-10T04:06:47.105Z,4.10
2018-12-10T04:09:15.647Z,4.10
2018-12-10T04:11:44.219Z,4.10
2018-12-10T04:14:12.771Z,4.00
2018-12-10T04:16:41.360Z,4.00
2018-12-10T04:19:09.909Z,4.00
2018-12-10T04:21:38.471Z,4.00
2018-12-10T04:24:07.001Z,4.00
2018-12-10T04:26:35.576Z,4.00
2018-12-10T04:29:04.156Z,4.00
2018-12-10T04:31:32.712Z,4.10
2018-12-10T04:34:01.252Z,4.10
2018-12-10T04:36:29.877Z,4.10
2018-12-10T04:38:58.413Z,4.20
2018-12-10T04:41:27.015Z,4.20
2018-12-10T04:43:55.554Z,4.20
2018-12-10T04:46:24.339Z,4.20
2018-12-10T04:48:52.919Z,4.20
2018-12-10T04:51:21.463Z,4.30
2018-12-10T04:53:50.009Z,4.30
2018-12-10T04:56:18.529Z,4.30
2018-12-10T04:58:47.090Z,4.30
2018-12-10T05:01:15.636Z,4.30
2018-12-10T05:03:44.188Z,4.30
2018-12-10T05:06:12.740Z,4.30
2018-12-10T05:08:41.314Z,4.30
2018-12-10T05:11:09.842Z,4.30
2018-12-10T05:13:38.417Z,4.20
2018-12-10T05:16:09.150Z,4.20
2018-12-10T05:18:37.567Z,4.30
2018-12-10T05:21:06.125Z,4.30
2018-12-10T05:23:34.677Z,4.30
2018-12-10T05:26:03.269Z,4.30
2018-12-10T05:28:31.839Z,4.30
2018-12-10T05:31:00.414Z,4.30
2018-12-10T05:33:28.973Z,4.30
2018-12-10T05:35:57.527Z,4.30
2018-12-10T05:38:26.079Z,4.30
2018-12-10T05:40:54.620Z,4.30
2018-12-10T05:43:23.172Z,4.30
2018-12-10T05:45:51.708Z,4.30
2018-12-10T05:48:20.309Z,4.30
2018-12-10T05:50:48.899Z,4.30
2018-12-10T05:53:17.497Z,4.30
2018-12-10T05:55:46.248Z,4.30
2018-12-10T05:58:15.072Z,4.30
2018-12-10T06:00:43.727Z,4.30
2018-12-10T06:03:12.289Z,4.30
2018-12-10T06:05:40.840Z,4.30
2018-12-10T06:08:09.528Z,4.30
2018-12-10T06:10:38.268Z,4.30
2018-12-10T06:13:06.826Z,4.30
2018-12-10T06:15:35.402Z,4.30
2018-12-10T06:18:03.957Z,4.30
2018-12-10T06:20:32.483Z,4.30
2018-12-10T06:23:01.034Z,4.30
2018-12-10T06:25:29.672Z,4.30
2018-12-10T06:27:58.212Z,4.30
2018-12-10T06:30:26.772Z,4.30
2018-12-10T06:32:55.444Z,4.30
2018-12-10T06:35:23.979Z,4.20
2018-12-10T06:37:52.524Z,4.20
2018-12-10T06:40:21.083Z,4.10
2018-12-10T06:42:49.603Z,4.10
2018-12-10T06:45:18.175Z,4.00
2018-12-10T06:47:46.796Z,4.00
2018-12-10T06:50:15.357Z,4.00
2018-12-10T06:52:43.911Z,4.00
2018-12-10T06:55:12.576Z,3.90
2018-12-10T06:57:41.118Z,3.90
2018-12-10T07:00:11.820Z,3.90
2018-12-10T07:02:40.395Z,3.90
2018-12-10T07:05:08.992Z,3.80
2018-12-10T07:07:37.528Z,3.80
2018-12-10T07:10:07.490Z,3.70
2018-12-10T07:12:36.036Z,3.80
2018-12-10T07:15:05.379Z,3.70
2018-12-10T07:17:33.924Z,3.60
2018-12-10T07:20:02.488Z,3.70
2018-12-10T07:22:31.008Z,3.60
2018-12-10T07:24:59.572Z,3.60
2018-12-10T07:27:28.128Z,3.60
2018-12-10T07:29:56.759Z,3.60
2018-12-10T07:32:25.323Z,3.50
2018-12-10T07:34:53.860Z,3.50
2018-12-10T07:37:22.412Z,3.50
2018-12-10T07:39:50.962Z,3.50
2018-12-10T07:42:19.494Z,3.50
2018-12-10T07:44:48.078Z,3.50
2018-12-10T07:47:16.644Z,3.50
2018-12-10T07:49:45.231Z,3.50
2018-12-10T07:52:13.772Z,3.50
2018-12-10T07:54:42.348Z,3.50
2018-12-10T07:57:10.891Z,3.60
2018-12-10T07:59:39.460Z,3.60
2018-12-10T08:02:08.074Z,3.60
2018-12-10T08:04:36.648Z,3.70
2018-12-10T08:07:05.337Z,3.80
2018-12-10T08:09:33.972Z,3.80
2018-12-10T08:12:02.576Z,3.90
2018-12-10T08:14:31.160Z,3.90
2018-12-10T08:16:59.732Z,3.90
2018-12-10T08:19:28.265Z,3.90
2018-12-10T08:21:56.836Z,3.90
2018-12-10T08:24:25.355Z,3.90
2018-12-10T08:26:54.011Z,4.00
2018-12-10T08:29:22.596Z,4.10
2018-12-10T08:31:51.151Z,4.10
2018-12-10T08:34:19.823Z,4.20
2018-12-10T08:36:48.388Z,4.20
2018-12-10T08:39:16.985Z,4.20
2018-12-10T08:41:45.545Z,4.20
2018-12-10T08:44:14.060Z,4.20
2018-12-10T08:46:42.656Z,4.20
2018-12-10T08:49:11.304Z,4.30
2018-12-10T08:51:39.864Z,4.30
2018-12-10T08:54:08.544Z,4.40
2018-12-10T08:56:37.112Z,4.40
2018-12-10T08:59:05.678Z,4.40
2018-12-10T09:01:34.217Z,4.40
2018-12-10T09:04:02.819Z,4.50
2018-12-10T09:06:31.372Z,4.50
2018-12-10T09:08:59.937Z,4.50
2018-12-10T09:11:28.520Z,4.50
2018-12-10T09:13:57.083Z,4.50
2018-12-10T09:16:25.647Z,4.50
2018-12-10T09:18:54.350Z,4.50
2018-12-10T09:21:23.139Z,4.50
2018-12-10T09:23:51.683Z,4.50
2018-12-10T09:26:20.365Z,4.60
2018-12-10T09:28:48.940Z,4.60
2018-12-10T09:31:17.501Z,4.60
2018-12-10T09:33:46.049Z,4.60
2018-12-10T09:36:14.604Z,4.60
2018-12-10T09:38:43.128Z,4.60
2018-12-10T09:41:11.688Z,4.60
2018-12-10T09:43:40.266Z,4.60
2018-12-10T09:46:08.807Z,4.60
2018-12-10T09:48:37.373Z,4.60
2018-12-10T09:51:05.903Z,4.70
2018-12-10T09:53:34.460Z,4.70
2018-12-10T09:56:03.040Z,4.90
2018-12-10T09:58:31.613Z,4.90
2018-12-10T10:01:00.167Z,4.80
2018-12-10T10:03:28.733Z,4.80
2018-12-10T10:05:57.308Z,4.90
2018-12-10T10:08:25.878Z,4.90
2018-12-10T10:10:54.460Z,4.90
2018-12-10T10:13:23.078Z,4.90
2018-12-10T10:15:51.619Z,4.90
2018-12-10T10:18:20.227Z,4.90
2018-12-10T10:20:48.848Z,5.00
2018-12-10T10:23:17.636Z,5.00
2018-12-10T10:25:46.304Z,5.00
2018-12-10T10:28:14.910Z,5.10
2018-12-10T10:30:44.136Z,5.10
2018-12-10T10:33:12.867Z,5.10
2018-12-10T10:35:41.404Z,5.00
2018-12-10T10:38:09.952Z,5.00
2018-12-10T10:40:38.485Z,5.00
2018-12-10T10:43:07.045Z,5.00
2018-12-10T10:45:35.580Z,5.00
2018-12-10T10:48:04.216Z,5.00
2018-12-10T10:50:32.772Z,5.00
2018-12-10T10:53:01.305Z,5.10
2018-12-10T10:55:29.843Z,5.20
2018-12-10T10:57:58.410Z,5.20
2018-12-10T11:00:32.411Z,5.20
2018-12-10T11:03:08.092Z,5.10
2018-12-10T11:05:36.715Z,5.10
2018-12-10T11:08:05.296Z,5.10
2018-12-10T11:10:33.973Z,5.10
2018-12-10T11:13:02.519Z,5.10
2018-12-10T11:15:31.095Z,5.10
2018-12-10T11:17:59.624Z,5.20
2018-12-10T11:20:28.235Z,5.20
2018-12-10T11:22:56.772Z,5.20
2018-12-10T11:25:25.326Z,5.30
2018-12-10T11:27:53.865Z,5.30
2018-12-10T11:30:22.575Z,5.20
2018-12-10T11:32:51.266Z,5.20
2018-12-10T11:35:19.840Z,5.10
2018-12-10T11:37:48.448Z,5.00
2018-12-10T11:40:17.144Z,4.80
2018-12-10T11:42:45.710Z,4.70
2018-12-10T11:45:14.268Z,4.70
2018-12-10T11:47:42.851Z,4.60
2018-12-10T11:50:11.451Z,4.60
2018-12-10T11:52:40.103Z,4.60
2018-12-10T11:55:08.783Z,4.50
2018-12-10T11:57:37.401Z,4.40
2018-12-10T12:00:08.720Z,4.40
2018-12-10T12:02:37.391Z,4.40
2018-12-10T12:05:06.470Z,4.40
2018-12-10T12:07:35.048Z,4.30
2018-12-10T12:10:03.813Z,4.40
2018-12-10T12:12:32.381Z,4.40
2018-12-10T12:15:01.027Z,4.50
2018-12-10T12:17:29.712Z,4.50
2018-12-10T12:19:58.306Z,4.60
2018-12-10T12:22:26.968Z,4.50
2018-12-10T12:24:55.569Z,4.60
2018-12-10T12:27:24.156Z,4.60
2018-12-10T12:29:52.762Z,4.60
2018-12-10T12:32:21.379Z,4.70
2018-12-10T12:34:53.852Z,4.70
2018-12-10T12:37:22.428Z,4.70
2018-12-10T12:39:50.977Z,4.70
2018-12-10T12:42:19.601Z,4.70
2018-12-10T12:44:48.152Z,4.70
2018-12-10T12:47:16.724Z,4.70
2018-12-10T12:49:45.286Z,4.70
2018-12-10T12:52:13.863Z,4.70
2018-12-10T12:54:42.428Z,4.60
2018-12-10T12:57:10.997Z,4.70
2018-12-10T12:59:39.548Z,4.60
2018-12-10T13:02:08.143Z,4.60
2018-12-10T13:04:36.829Z,4.60
2018-12-10T13:07:05.393Z,4.60
2018-12-10T13:09:33.972Z,4.60
2018-12-10T13:12:02.563Z,4.60
2018-12-10T13:14:31.133Z,4.70
2018-12-10T13:16:59.676Z,4.70
2018-12-10T13:19:29.725Z,4.80
2018-12-10T13:21:58.532Z,4.80
2018-12-10T13:24:27.095Z,4.90
2018-12-10T13:26:55.668Z,4.90
2018-12-10T13:29:31.218Z,4.90
2018-12-10T13:31:54.816Z,4.90
2018-12-10T13:34:23.376Z,5.00
2018-12-10T13:36:51.941Z,5.10
2018-12-10T13:39:20.501Z,5.10
2018-12-10T13:41:49.983Z,5.10
2018-12-10T13:44:18.580Z,5.20
2018-12-10T13:46:47.168Z,5.30
2018-12-10T13:49:15.771Z,5.40
2018-12-10T13:51:44.983Z,5.60
2018-12-10T13:54:13.539Z,5.80
2018-12-10T13:56:42.127Z,5.80
2018-12-10T13:59:10.668Z,5.70
2018-12-10T14:01:39.252Z,5.60
2018-12-10T14:04:12.064Z,5.60
2018-12-10T14:06:40.642Z,5.60
2018-12-10T14:09:09.297Z,5.50
2018-12-10T14:11:37.848Z,5.40
2018-12-10T14:14:06.420Z,5.40
2018-12-10T14:16:35.019Z,5.30
2018-12-10T14:19:03.568Z,5.40
2018-12-10T14:21:32.131Z,5.30
2018-12-10T14:24:00.672Z,5.30
2018-12-10T14:26:29.272Z,5.40
2018-12-10T14:28:57.812Z,5.40
2018-12-10T14:31:27.462Z,5.50
2018-12-10T14:33:58.336Z,5.50
2018-12-10T14:36:26.905Z,5.40
2018-12-10T14:38:55.504Z,5.40
2018-12-10T14:41:24.151Z,5.40
2018-12-10T14:43:52.700Z,5.30
2018-12-10T14:46:21.363Z,5.30
2018-12-10T14:48:50.015Z,5.20
2018-12-10T14:51:18.666Z,5.20
2018-12-10T14:53:47.234Z,5.10
2018-12-10T14:56:15.776Z,5.10
2018-12-10T14:58:44.341Z,5.00
2018-12-10T15:01:12.890Z,5.00
2018-12-10T15:03:41.472Z,4.90
2018-12-10T15:06:10.017Z,4.80
2018-12-10T15:08:38.580Z,4.80
2018-12-10T15:11:07.367Z,4.70
2018-12-10T15:13:35.924Z,4.70
2018-12-10T15:16:04.486Z,4.60
2018-12-10T15:18:33.134Z,4.60
2018-12-10T15:21:01.667Z,4.50
2018-12-10T15:23:30.199Z,4.50
2018-12-10T15:25:58.764Z,4.50
2018-12-10T15:28:27.419Z,4.40
2018-12-10T15:30:55.980Z,4.50
2018-12-10T15:33:24.560Z,4.40
2018-12-10T15:35:53.157Z,4.30
2018-12-10T15:38:21.793Z,4.30
2018-12-10T15:40:50.475Z,4.30
2018-12-10T15:43:19.023Z,4.20
2018-12-10T15:45:47.564Z,4.20
2018-12-10T15:48:16.156Z,4.20
2018-12-10T15:50:45.000Z,4.10
2018-12-10T15:53:13.684Z,4.10
2018-12-10T15:55:42.256Z,4.10
2018-12-10T15:58:10.940Z,4.10
2018-12-10T16:00:39.569Z,4.10
2018-12-10T16:03:08.112Z,4.10
2018-12-10T16:05:36.707Z,4.10
2018-12-10T16:08:05.262Z,4.10
2018-12-10T16:10:33.812Z,4.10
2018-12-10T16:13:02.392Z,4.10
2018-12-10T16:15:30.980Z,4.10
2018-12-10T16:17:59.499Z,4.00
2018-12-10T16:20:28.083Z,4.00
2018-12-10T16:22:56.776Z,4.00
2018-12-10T16:25:25.340Z,4.00
2018-12-10T16:27:53.895Z,3.90
2018-12-10T16:30:22.918Z,4.00
2018-12-10T16:32:51.781Z,3.90
2018-12-10T16:35:20.379Z,3.90
2018-12-10T16:37:49.023Z,3.90
2018-12-10T16:42:38.394Z,4.00
2018-12-10T16:45:07.956Z,4.00
2018-12-10T16:47:36.589Z,4.00
2018-12-10T16:50:06.628Z,4.00
2018-12-10T16:52:35.147Z,4.00
2018-12-10T16:55:03.867Z,4.00
2018-12-10T16:57:32.498Z,4.00
2018-12-10T17:00:01.082Z,4.00
2018-12-10T17:02:29.693Z,3.90
2018-12-10T17:05:00.276Z,3.90
2018-12-10T17:07:28.832Z,3.90
2018-12-10T17:09:57.412Z,3.90
2018-12-10T17:12:25.986Z,3.90
2018-12-10T17:14:54.529Z,4.00
2018-12-10T17:17:23.093Z,4.00
2018-12-10T17:19:51.732Z,4.00
2018-12-10T17:22:20.359Z,4.00
2018-12-10T17:24:48.906Z,4.00
2018-12-10T17:27:17.487Z,4.00
2018-12-10T17:29:46.029Z,3.90
2018-12-10T17:32:14.591Z,3.90
2018-12-10T17:34:43.144Z,3.80
2018-12-10T17:37:11.704Z,3.80
2018-12-10T17:39:40.260Z,3.80
2018-12-10T17:42:08.829Z,3.70
2018-12-10T17:44:37.400Z,3.70
2018-12-10T17:47:08.739Z,3.70
2018-12-10T17:49:36.781Z,3.70
2018-12-10T17:52:05.535Z,3.70
2018-12-10T17:54:34.235Z,3.70
2018-12-10T17:57:02.793Z,3.70
2018-12-10T17:59:31.373Z,3.70
2018-12-10T18:01:59.961Z,3.70
2018-12-10T18:04:28.575Z,3.70
2018-12-10T18:06:57.181Z,3.70
2018-12-10T18:09:25.743Z,3.70
2018-12-10T18:11:54.287Z,3.70
2018-12-10T18:14:22.835Z,3.70
2018-12-10T18:16:51.383Z,3.70
2018-12-10T18:19:20.015Z,3.70
2018-12-10T18:21:48.539Z,3.60
2018-12-10T18:24:17.104Z,3.60
2018-12-10T18:26:45.662Z,3.50
2018-12-10T18:29:14.275Z,3.50
2018-12-10T18:31:42.876Z,3.50
2018-12-10T18:34:11.452Z,3.50
2018-12-10T18:36:39.997Z,3.50
2018-12-10T18:39:09.212Z,3.50
2018-12-10T18:41:37.757Z,3.50
2018-12-10T18:44:06.383Z,3.50
2018-12-10T18:46:34.911Z,3.50
2018-12-10T18:49:03.488Z,3.40
2018-12-10T18:51:32.028Z,3.40
2018-12-10T18:54:00.608Z,3.40
2018-12-10T18:56:29.136Z,3.40
2018-12-10T18:58:57.700Z,3.30
2018-12-10T19:01:26.233Z,3.30
2018-12-10T19:03:54.771Z,3.30
2018-12-10T19:06:23.435Z,3.40
2018-12-10T19:08:52.647Z,3.40
2018-12-10T19:11:22.435Z,3.40
2018-12-10T19:13:51.001Z,3.30
2018-12-10T19:16:19.571Z,3.30
2018-12-10T19:18:48.111Z,3.30
2018-12-10T19:21:16.656Z,3.30
2018-12-10T19:23:45.228Z,3.30
2018-12-10T19:26:13.797Z,3.30
2018-12-10T19:28:42.540Z,3.30
2018-12-10T19:31:11.125Z,3.20
2018-12-10T19:33:39.677Z,3.20
2018-12-10T19:36:08.300Z,3.20
2018-12-10T19:38:36.832Z,3.20
2018-12-10T19:41:05.391Z,3.30
2018-12-10T19:43:33.970Z,3.30
2018-12-10T19:46:02.536Z,3.30
2018-12-10T19:48:31.124Z,3.30
2018-12-10T19:50:59.843Z,3.40
2018-12-10T19:53:28.388Z,3.30
2018-12-10T19:55:56.966Z,3.30
2018-12-10T19:58:25.635Z,3.30
2018-12-10T20:00:54.236Z,3.40
2018-12-10T20:03:23.017Z,3.30
2018-12-10T20:05:57.042Z,3.30
2018-12-10T20:08:25.844Z,3.30
2018-12-10T20:10:54.412Z,3.30
2018-12-10T20:13:23.070Z,3.30
2018-12-10T20:15:51.617Z,3.40
2018-12-10T20:18:20.152Z,3.40
2018-12-10T20:20:48.684Z,3.40
2018-12-10T20:23:17.296Z,3.40
2018-12-10T20:25:45.897Z,3.50
2018-12-10T20:28:14.580Z,3.50
2018-12-10T20:30:43.235Z,3.50
2018-12-10T20:33:11.878Z,3.50
2018-12-10T20:35:40.421Z,3.50
2018-12-10T20:38:08.991Z,3.50
2018-12-10T20:40:37.533Z,3.50
2018-12-10T20:43:06.086Z,3.40
2018-12-10T20:45:34.635Z,3.50
2018-12-10T20:48:03.274Z,3.50
2018-12-10T20:50:31.858Z,3.50
2018-12-10T20:53:00.442Z,3.50
2018-12-10T20:55:28.964Z,3.50
2018-12-10T20:57:57.571Z,3.50
2018-12-10T21:00:26.223Z,3.50
2018-12-10T21:02:54.761Z,3.50
2018-12-10T21:05:25.174Z,3.50
2018-12-10T21:07:53.712Z,3.50
2018-12-10T21:10:22.276Z,3.50
2018-12-10T21:12:50.841Z,3.50
2018-12-10T21:15:19.412Z,3.50
2018-12-10T21:17:48.010Z,3.40
2018-12-10T21:20:16.575Z,3.30
2018-12-10T21:22:45.199Z,3.30
2018-12-10T21:25:13.788Z,3.30
2018-12-10T21:27:42.327Z,3.30
2018-12-10T21:30:10.884Z,3.30
2018-12-10T21:32:40.793Z,3.30
2018-12-10T21:35:09.355Z,3.30
2018-12-10T21:37:37.928Z,3.30
2018-12-10T21:40:06.831Z,3.30
2018-12-10T21:42:38.930Z,3.40
2018-12-10T21:45:07.180Z,3.40
2018-12-10T21:47:35.732Z,3.40
2018-12-10T21:50:04.724Z,3.40
2018-12-10T21:52:33.383Z,3.40
2018-12-10T21:55:01.893Z,3.40
2018-12-10T21:57:30.439Z,3.40
2018-12-10T21:59:58.997Z,3.50
2018-12-10T22:02:27.602Z,3.50
2018-12-10T22:04:56.187Z,3.50
2018-12-10T22:07:24.747Z,3.50
2018-12-10T22:09:53.265Z,3.50
2018-12-10T22:12:21.812Z,3.50
2018-12-10T22:14:50.348Z,3.50
2018-12-10T22:17:18.899Z,3.50
2018-12-10T22:19:47.440Z,3.50
2018-12-10T22:22:15.963Z,3.50
2018-12-10T22:24:44.480Z,3.50
2018-12-10T22:27:13.012Z,3.50
2018-12-10T22:29:41.542Z,3.50
2018-12-10T22:32:10.097Z,3.50
2018-12-10T22:34:38.631Z,3.50
2018-12-10T22:37:07.183Z,3.50
2018-12-10T22:39:35.750Z,3.50
2018-12-10T22:42:04.297Z,3.50
2018-12-10T22:44:32.943Z,3.50
2018-12-10T22:47:01.495Z,3.50
2018-12-10T22:49:30.076Z,3.40
2018-12-10T22:51:58.605Z,3.40
2018-12-10T22:54:27.149Z,3.40
2018-12-10T22:56:55.669Z,3.30
2018-12-10T22:59:24.215Z,3.30
2018-12-10T23:01:52.745Z,3.30
2018-12-10T23:04:21.393Z,3.20
2018-12-10T23:06:49.911Z,3.20
2018-12-10T23:09:18.462Z,3.30
2018-12-10T23:11:47.005Z,3.20
2018-12-10T23:14:15.549Z,3.30
2018-12-10T23:16:44.188Z,3.30
2018-12-10T23:19:12.789Z,3.20
2018-12-10T23:21:41.328Z,3.20
2018-12-10T23:24:09.875Z,3.20
2018-12-10T23:26:38.407Z,3.10
2018-12-10T23:29:06.987Z,3.10
2018-12-10T23:31:35.538Z,3.10
2018-12-10T23:34:04.234Z,3.10
2018-12-10T23:36:32.816Z,3.10
2018-12-10T23:39:01.322Z,3.10
2018-12-10T23:41:29.879Z,3.10
2018-12-10T23:43:58.404Z,3.10
2018-12-10T23:46:26.947Z,3.10
2018-12-10T23:48:55.499Z,3.10
2018-12-10T23:51:24.056Z,3.10
2018-12-10T23:53:52.619Z,3.10
2018-12-10T23:56:21.218Z,3.10
2018-12-10T23:58:49.756Z,3.10
